Findlay Airport Findlay US
ICAO: KFDY
IATA: FDY
Category: Medium
Scheduled Services: No

Elevation: 813 ft
TransAlt. 18000 ft.

Airport Communications:
TOLEDO APP/DEP:120.8
ASOS:124.425
CLEVELAND RDO:122.2
CTAF/UNICOM:122.725

KFDY Zoom In..

Runways:

(A) RW 07 length 5883 ft width 100 ft
---- / hdg 74

(B) RW 18 length 6498 ft width 100 ft
---- / hdg 185

(C) RW 25 length 5883 ft width 100 ft
---- / hdg 254

(D) RW 36 length 6498 ft width 100 ft
---- / hdg 5

Location; KFDY
Day. 24 / Time. 12.53 Zulu
* Altimeter: 30.24
* Temperature: 20° c. 68°f.
* Wind from: 000° Speed 00 kn.
Dewpoint: 11° c.
Visibility: 10 Statute Miles.
Clouds: Clear (automated report).

KFDY 241253Z AUTO 00000KT 10SM CLR 20/11 A3024 RMK AO2 SLP233 T02000111


Wind - Calm.

 
 
jpsmedia.com for Web Design SOUNDCLOUD worldairports.se 2018   terms of use